createdAt,value
2022-12-19T00:01:33.864Z,102215.78
2022-12-19T00:04:07.063Z,102212.25
2022-12-19T00:06:35.825Z,102221.13
2022-12-19T00:09:03.289Z,102210.47
2022-12-19T00:11:30.539Z,102199.84
2022-12-19T00:13:58.697Z,102206.91
2022-12-19T00:16:28.410Z,102199.84
2022-12-19T00:18:58.415Z,102198.94
2022-12-19T00:21:28.163Z,102190.97
2022-12-19T00:23:55.262Z,102183.00
2022-12-19T00:26:25.988Z,102189.19
2022-12-19T00:29:01.471Z,102184.75
2022-12-19T00:31:31.076Z,102183.88
2022-12-19T00:33:58.648Z,102175.88
2022-12-19T00:36:28.737Z,102177.69
2022-12-19T00:38:57.113Z,102167.94
2022-12-19T00:41:32.338Z,102172.38
2022-12-19T00:44:04.972Z,102181.22
2022-12-19T00:46:33.526Z,102179.47
2022-12-19T00:49:00.696Z,102175.91
2022-12-19T00:51:30.211Z,102171.47
2022-12-19T00:53:58.042Z,102159.09
2022-12-19T00:56:28.341Z,102157.28
2022-12-19T00:58:55.920Z,102160.88
2022-12-19T01:01:28.994Z,102160.84
2022-12-19T01:04:27.065Z,102152.00
2022-12-19T01:06:45.226Z,102154.66
2022-12-19T01:09:12.956Z,102147.56
2022-12-19T01:11:58.266Z,102147.56
2022-12-19T01:14:25.071Z,102144.91
2022-12-19T01:16:51.910Z,102148.47
2022-12-19T01:19:19.742Z,102154.69
2022-12-19T01:21:46.610Z,102157.31
2022-12-19T01:24:13.726Z,102163.53
2022-12-19T01:26:44.296Z,102153.78
2022-12-19T01:29:10.965Z,102156.47
2022-12-19T01:31:37.746Z,102142.28
2022-12-19T01:34:04.509Z,102133.41
2022-12-19T01:36:32.271Z,102128.09
2022-12-19T01:38:58.980Z,102129.84
2022-12-19T01:41:25.893Z,102134.28
2022-12-19T01:43:59.864Z,102124.56
2022-12-19T01:46:41.591Z,102130.75
2022-12-19T01:49:25.088Z,102128.09
2022-12-19T01:51:53.849Z,102126.28
2022-12-19T01:54:30.199Z,102118.31
2022-12-19T01:56:59.589Z,102104.13
2022-12-19T01:59:37.656Z,102094.38
2022-12-19T02:02:11.990Z,102107.66
2022-12-19T02:04:40.754Z,102099.66
2022-12-19T02:07:15.968Z,102096.13
2022-12-19T02:09:46.314Z,102095.25
2022-12-19T02:12:13.510Z,102082.81
2022-12-19T02:14:41.449Z,102076.59
2022-12-19T02:17:47.718Z,102069.50
2022-12-19T02:20:47.531Z,102049.09
2022-12-19T02:23:23.224Z,102056.19
2022-12-19T02:26:23.682Z,102049.09
2022-12-19T02:29:34.777Z,102049.94
2022-12-19T02:32:07.602Z,102034.00
2022-12-19T02:34:59.085Z,102029.56
2022-12-19T02:37:33.673Z,102030.44
2022-12-19T02:40:23.229Z,102029.56
2022-12-19T02:42:57.395Z,102022.44
2022-12-19T02:45:28.782Z,102022.41
2022-12-19T02:47:58.685Z,102008.19
2022-12-19T02:50:37.145Z,101994.94
2022-12-19T02:53:03.870Z,102007.34
2022-12-19T02:55:38.192Z,102017.09
2022-12-19T02:58:38.483Z,102016.19
2022-12-19T03:01:15.103Z,102020.63
2022-12-19T03:03:59.229Z,102017.06
2022-12-19T03:06:37.340Z,102010.84
2022-12-19T03:09:03.997Z,102019.69
2022-12-19T03:11:35.870Z,102012.59
2022-12-19T03:14:07.453Z,102016.16
2022-12-19T03:16:36.604Z,102003.72
2022-12-19T03:19:04.577Z,102000.16
2022-12-19T03:21:44.021Z,102009.00
2022-12-19T03:24:13.093Z,101995.66
2022-12-19T03:26:45.841Z,101997.38
2022-12-19T03:29:23.538Z,101992.94
2022-12-19T03:31:51.945Z,101984.06
2022-12-19T03:34:23.187Z,101984.97
2022-12-19T03:36:55.373Z,101966.34
2022-12-19T03:39:27.358Z,101975.16
2022-12-19T03:42:15.020Z,101977.84
2022-12-19T03:44:42.880Z,101977.78
2022-12-19T03:47:31.220Z,101969.84
2022-12-19T03:49:57.895Z,101964.44
2022-12-19T03:52:50.617Z,101979.53
2022-12-19T03:55:24.431Z,101974.22
2022-12-19T03:57:57.598Z,101979.59
2022-12-19T04:00:25.768Z,101975.97
2022-12-19T04:02:55.614Z,101968.84
2022-12-19T04:05:25.134Z,101967.97
2022-12-19T04:07:55.455Z,101960.88
2022-12-19T04:10:25.962Z,101966.16
2022-12-19T04:12:56.542Z,101959.13
2022-12-19T04:15:34.003Z,101950.25
2022-12-19T04:18:04.959Z,101938.69
2022-12-19T04:20:34.213Z,101928.91
2022-12-19T04:23:06.902Z,101923.63
2022-12-19T04:25:45.981Z,101924.41
2022-12-19T04:28:32.085Z,101929.81
2022-12-19T04:30:59.951Z,101918.19
2022-12-19T04:33:26.721Z,101920.91
2022-12-19T04:35:53.479Z,101907.53
2022-12-19T04:38:21.504Z,101911.94
2022-12-19T04:40:48.336Z,101898.63
2022-12-19T04:43:15.045Z,101902.16
2022-12-19T04:45:42.224Z,101902.16
2022-12-19T04:48:09.289Z,101899.50
2022-12-19T04:50:36.417Z,101896.84
2022-12-19T04:53:03.613Z,101890.56
2022-12-19T04:55:30.286Z,101884.34
2022-12-19T04:57:57.108Z,101872.81
2022-12-19T05:00:24.035Z,101870.19
2022-12-19T05:02:50.881Z,101871.06
2022-12-19T05:05:18.963Z,101859.44
2022-12-19T05:07:46.942Z,101855.03
2022-12-19T05:10:13.750Z,101861.19
2022-12-19T05:12:40.410Z,101857.63
2022-12-19T05:15:07.662Z,101854.09
2022-12-19T05:17:34.360Z,101852.31
2022-12-19T05:20:01.117Z,101839.84
2022-12-19T05:22:28.156Z,101833.53
2022-12-19T05:24:54.840Z,101833.50
2022-12-19T05:27:21.728Z,101821.03
2022-12-19T05:29:48.421Z,101806.88
2022-12-19T05:32:15.776Z,101812.16
2022-12-19T05:34:42.638Z,101805.88
2022-12-19T05:37:09.302Z,101815.63
2022-12-19T05:39:36.038Z,101812.03
2022-12-19T05:42:02.715Z,101797.78
2022-12-19T05:44:29.423Z,101788.00
2022-12-19T05:46:56.166Z,101794.16
2022-12-19T05:49:22.854Z,101791.53
2022-12-19T05:51:51.164Z,101785.19
2022-12-19T05:54:18.018Z,101774.56
2022-12-19T05:56:44.992Z,101780.75
2022-12-19T05:59:11.885Z,101768.28
2022-12-19T06:01:41.727Z,101753.97
2022-12-19T06:04:08.476Z,101736.13
2022-12-19T06:06:35.164Z,101742.31
2022-12-19T06:09:02.733Z,101737.91
2022-12-19T06:11:29.545Z,101735.25
2022-12-19T06:14:01.066Z,101736.97
2022-12-19T06:16:27.849Z,101725.31
2022-12-19T06:18:54.707Z,101724.47
2022-12-19T06:21:23.051Z,101721.78
2022-12-19T06:23:50.360Z,101716.31
2022-12-19T06:26:20.397Z,101714.53
2022-12-19T06:28:51.644Z,101706.56
2022-12-19T06:31:20.583Z,101707.34
2022-12-19T06:33:47.396Z,101702.03
2022-12-19T06:36:16.169Z,101692.19
2022-12-19T06:38:43.220Z,101687.78
2022-12-19T06:41:29.859Z,101676.03
2022-12-19T06:44:05.142Z,101673.44
2022-12-19T06:46:33.331Z,101668.88
2022-12-19T06:49:00.360Z,101671.66
2022-12-19T06:51:27.224Z,101671.53
2022-12-19T06:53:54.372Z,101666.19
2022-12-19T06:56:21.078Z,101663.38
2022-12-19T06:58:48.380Z,101655.41
2022-12-19T07:01:31.481Z,101660.59
2022-12-19T07:03:59.008Z,101662.41
2022-12-19T07:06:25.690Z,101655.31
2022-12-19T07:08:53.196Z,101648.13
2022-12-19T07:11:19.841Z,101641.91
2022-12-19T07:13:46.532Z,101644.69
2022-12-19T07:16:13.285Z,101635.63
2022-12-19T07:18:41.326Z,101623.22
2022-12-19T07:21:11.365Z,101626.88
2022-12-19T07:23:39.268Z,101612.47
2022-12-19T07:26:06.296Z,101608.09
2022-12-19T07:28:34.318Z,101607.09
2022-12-19T07:31:01.091Z,101601.84
2022-12-19T07:33:27.854Z,101584.88
2022-12-19T07:35:54.528Z,101575.91
2022-12-19T07:38:21.240Z,101575.06
2022-12-19T07:40:47.965Z,101562.56
2022-12-19T07:43:14.627Z,101559.03
2022-12-19T07:45:41.527Z,101544.69
2022-12-19T07:48:08.748Z,101527.78
2022-12-19T07:50:35.604Z,101522.34
2022-12-19T07:53:02.393Z,101514.34
2022-12-19T07:55:29.378Z,101498.25
2022-12-19T07:57:56.095Z,101493.75
2022-12-19T08:00:23.359Z,101494.63
2022-12-19T08:02:50.189Z,101490.91
2022-12-19T08:05:16.995Z,101469.47
2022-12-19T08:07:46.628Z,101464.06
2022-12-19T08:10:14.924Z,101459.63
2022-12-19T08:12:41.981Z,101456.84
2022-12-19T08:15:09.272Z,101438.06
2022-12-19T08:17:38.772Z,101415.56
2022-12-19T08:20:07.479Z,101412.72
2022-12-19T08:22:34.840Z,101414.69
2022-12-19T08:25:01.555Z,101402.09
2022-12-19T08:27:28.322Z,101409.06
2022-12-19T08:29:55.012Z,101392.09
2022-12-19T08:32:21.998Z,101375.31
2022-12-19T08:34:50.112Z,101381.41
2022-12-19T08:37:17.574Z,101357.22
2022-12-19T08:39:44.500Z,101366.00
2022-12-19T08:42:11.250Z,101348.03
2022-12-19T08:44:37.953Z,101340.03
2022-12-19T08:47:05.113Z,101331.09
2022-12-19T08:49:31.902Z,101331.94
2022-12-19T08:51:58.636Z,101320.38
2022-12-19T08:54:25.360Z,101301.47
2022-12-19T08:56:52.052Z,101298.72
2022-12-19T08:59:24.218Z,101291.75
2022-12-19T09:01:59.733Z,101280.88
2022-12-19T09:05:58.840Z,101278.22
2022-12-19T09:07:16.342Z,101274.53
2022-12-19T09:09:44.292Z,101256.72
2022-12-19T09:12:13.313Z,101245.84
2022-12-19T09:14:42.046Z,101237.84
2022-12-19T09:17:09.448Z,101241.25
2022-12-19T09:19:36.226Z,101235.91
2022-12-19T09:22:02.949Z,101220.59
2022-12-19T09:24:29.755Z,101215.97
2022-12-19T09:26:56.453Z,101207.03
2022-12-19T09:29:23.219Z,101199.09
2022-12-19T09:31:55.394Z,101184.63
2022-12-19T09:34:37.073Z,101177.47
2022-12-19T09:37:17.115Z,101178.28
2022-12-19T09:39:48.149Z,101155.78
2022-12-19T09:42:27.891Z,101136.97
2022-12-19T09:45:32.439Z,101139.69
2022-12-19T09:48:01.500Z,101126.97
2022-12-19T09:50:56.298Z,101117.88
2022-12-19T09:53:54.288Z,101105.16
2022-12-19T09:56:23.710Z,101104.34
2022-12-19T09:58:58.218Z,101098.94
2022-12-19T10:01:39.027Z,101089.19
2022-12-19T10:04:12.230Z,101077.28
2022-12-19T10:07:16.837Z,101075.63
2022-12-19T10:12:00.215Z,101056.75
2022-12-19T10:12:52.882Z,101058.44
2022-12-19T10:15:46.294Z,101053.19
2022-12-19T10:18:31.951Z,101053.97
2022-12-19T10:22:15.845Z,101045.63
2022-12-19T10:24:56.660Z,101029.25
2022-12-19T10:27:59.456Z,101006.22
2022-12-19T10:30:31.802Z,100992.59
2022-12-19T10:33:01.761Z,100987.09
2022-12-19T10:35:41.411Z,100966.19
2022-12-19T10:38:08.010Z,100974.53
2022-12-19T10:40:43.991Z,100974.22
2022-12-19T10:43:32.779Z,100961.94
2022-12-19T10:46:11.537Z,100956.00
2022-12-19T10:48:38.302Z,100943.94
2022-12-19T10:51:06.498Z,100921.03
2022-12-19T10:53:34.303Z,100917.88
2022-12-19T10:56:11.360Z,100895.38
2022-12-19T10:58:42.147Z,100875.81
2022-12-19T11:01:24.665Z,100860.09
2022-12-19T11:04:26.964Z,100864.13
2022-12-19T11:07:17.427Z,100848.44
2022-12-19T11:09:52.427Z,100852.19
2022-12-19T11:16:30.339Z,100833.69
2022-12-19T11:19:41.628Z,100833.31
2022-12-19T11:27:28.840Z,100820.84
2022-12-19T11:29:27.630Z,100808.38
2022-12-19T11:29:32.818Z,100802.13
2022-12-19T11:30:48.365Z,100790.63
2022-12-19T11:32:41.870Z,100777.94
2022-12-19T11:35:17.020Z,100767.84
2022-12-19T11:37:47.114Z,100770.84
2022-12-19T11:40:22.600Z,100759.25
2022-12-19T11:43:41.848Z,100745.53
2022-12-19T11:45:55.156Z,100739.97
2022-12-19T11:48:52.031Z,100754.56
2022-12-19T11:51:22.242Z,100731.25
2022-12-19T11:54:30.193Z,100730.25
2022-12-19T11:56:57.781Z,100715.03
2022-12-19T11:59:32.167Z,100692.72
2022-12-19T12:02:36.665Z,100691.78
2022-12-19T12:05:09.880Z,100697.38
2022-12-19T12:08:48.596Z,100673.47
2022-12-19T12:15:58.505Z,100661.66
2022-12-19T12:24:06.254Z,100664.44
2022-12-19T12:28:19.532Z,100660.16
2022-12-19T12:31:09.192Z,100632.03
2022-12-19T12:31:13.483Z,100646.38
2022-12-19T12:31:50.992Z,100655.50
2022-12-19T12:31:57.405Z,100638.69
2022-12-19T12:35:43.568Z,100630.84
2022-12-19T12:40:45.930Z,100592.13
2022-12-19T12:43:39.986Z,100590.56
2022-12-19T12:46:14.912Z,100563.88
2022-12-19T12:48:56.046Z,100565.38
2022-12-19T12:51:25.714Z,100570.56
2022-12-19T12:53:58.825Z,100568.22
2022-12-19T12:56:26.112Z,100568.44
2022-12-19T12:58:54.413Z,100553.06
2022-12-19T13:01:37.835Z,100538.56
2022-12-19T13:04:10.488Z,100548.59
2022-12-19T13:06:38.856Z,100543.41
2022-12-19T13:09:30.526Z,100535.88
2022-12-19T13:12:18.583Z,100542.31
2022-12-19T13:14:50.673Z,100536.91
2022-12-19T13:17:52.537Z,100524.84
2022-12-19T13:20:19.212Z,100509.09
2022-12-19T13:22:59.168Z,100502.63
2022-12-19T13:25:34.764Z,100499.75
2022-12-19T13:28:01.354Z,100509.78
2022-12-19T13:30:50.552Z,100500.63
2022-12-19T13:33:22.069Z,100489.75
2022-12-19T13:38:58.015Z,100483.44
2022-12-19T13:39:59.029Z,100479.03
2022-12-19T13:42:00.280Z,100482.09
2022-12-19T13:44:27.917Z,100465.78
2022-12-19T13:46:55.372Z,100454.91
2022-12-19T13:49:35.096Z,100458.16
2022-12-19T13:52:04.335Z,100447.78
2022-12-19T13:54:45.540Z,100457.88
2022-12-19T13:57:22.263Z,100442.44
2022-12-19T14:00:00.476Z,100449.91
2022-12-19T14:02:44.370Z,100439.81
2022-12-19T14:05:31.930Z,100435.81
2022-12-19T14:08:21.610Z,100417.59
2022-12-19T14:11:40.883Z,100423.47
2022-12-19T14:14:10.258Z,100416.78
2022-12-19T14:16:45.550Z,100423.53
2022-12-19T14:19:40.294Z,100423.16
2022-12-19T14:22:33.398Z,100412.91
2022-12-19T14:25:33.406Z,100406.06
2022-12-19T14:28:24.867Z,100405.00
2022-12-19T14:30:49.099Z,100401.78
2022-12-19T14:33:45.355Z,100389.38
2022-12-19T14:36:16.031Z,100397.06
2022-12-19T14:39:21.975Z,100395.06
2022-12-19T14:42:01.723Z,100396.88
2022-12-19T14:53:51.973Z,100384.25
2022-12-19T14:54:04.080Z,100368.91
2022-12-19T14:54:05.506Z,100378.06
2022-12-19T14:54:33.737Z,100355.06
2022-12-19T14:59:04.647Z,100361.78
2022-12-19T15:01:34.689Z,100358.56
2022-12-19T15:04:51.681Z,100356.03
2022-12-19T15:07:07.694Z,100356.34
2022-12-19T15:11:06.607Z,100348.91
2022-12-19T15:14:53.992Z,100346.06
2022-12-19T15:16:24.886Z,100334.91
2022-12-19T15:18:54.039Z,100350.03
2022-12-19T15:21:23.360Z,100349.31
2022-12-19T15:23:52.083Z,100332.41
2022-12-19T15:26:28.687Z,100336.59
2022-12-19T15:28:56.873Z,100316.84
2022-12-19T15:31:38.433Z,100325.47
2022-12-19T15:37:16.548Z,100310.19
2022-12-19T15:39:44.648Z,100300.09
2022-12-19T15:42:29.520Z,100295.44
2022-12-19T15:44:58.017Z,100300.28
2022-12-19T15:47:37.079Z,100303.72
2022-12-19T15:50:23.104Z,100297.25
2022-12-19T15:52:52.357Z,100300.66
2022-12-19T15:55:19.986Z,100198.09
2022-12-19T15:57:51.779Z,100190.13
2022-12-19T16:00:26.878Z,100186.66
2022-12-19T16:05:42.077Z,100159.09
2022-12-19T16:08:18.016Z,100156.66
2022-12-19T16:10:47.264Z,100151.25
2022-12-19T16:13:35.257Z,100145.09
2022-12-19T16:16:09.198Z,100148.84
2022-12-19T16:18:42.546Z,100133.50
2022-12-19T16:21:19.002Z,100119.47
2022-12-19T16:23:45.850Z,100139.72
2022-12-19T16:26:27.725Z,100133.59
2022-12-19T16:28:54.784Z,100130.34
2022-12-19T16:31:24.503Z,100139.19
2022-12-19T16:33:51.689Z,100126.41
2022-12-19T16:36:18.540Z,100129.09
2022-12-19T16:38:45.653Z,100135.22
2022-12-19T16:41:22.805Z,100115.09
2022-12-19T16:43:49.819Z,100127.41
2022-12-19T16:46:19.591Z,100155.50
2022-12-19T16:48:47.603Z,100191.47
2022-12-19T16:51:20.617Z,100192.22
2022-12-19T16:53:48.789Z,100181.59
2022-12-19T16:56:38.705Z,100185.22
2022-12-19T16:59:21.662Z,100186.44
2022-12-19T17:01:49.396Z,100185.84
2022-12-19T17:04:19.466Z,100178.94
2022-12-19T17:06:46.470Z,100171.25
2022-12-19T17:09:18.903Z,100175.06
2022-12-19T17:11:48.914Z,100177.88
2022-12-19T17:14:20.033Z,100166.84
2022-12-19T17:16:47.895Z,100162.84
2022-12-19T17:19:57.553Z,100156.25
2022-12-19T17:22:24.500Z,100154.47
2022-12-19T17:24:51.507Z,100161.28
2022-12-19T17:27:19.296Z,100146.56
2022-12-19T17:29:47.271Z,100151.53
2022-12-19T17:32:23.298Z,100142.25
2022-12-19T17:34:50.887Z,100144.50
2022-12-19T17:37:17.717Z,100150.31
2022-12-19T17:39:44.447Z,100148.28
2022-12-19T17:42:19.807Z,100149.31
2022-12-19T17:44:46.526Z,100146.31
2022-12-19T17:47:16.242Z,100149.91
2022-12-19T17:49:43.279Z,100145.16
2022-12-19T17:52:19.013Z,100132.81
2022-12-19T17:54:46.995Z,100139.16
2022-12-19T17:57:15.307Z,100127.91
2022-12-19T17:59:42.465Z,100133.00
2022-12-19T18:02:26.287Z,100133.22
2022-12-19T18:04:53.564Z,100139.44
2022-12-19T18:07:20.615Z,100137.72
2022-12-19T18:09:48.697Z,100134.75
2022-12-19T18:12:15.356Z,100141.66
2022-12-19T18:14:42.135Z,100143.22
2022-12-19T18:17:12.906Z,100135.72
2022-12-19T18:19:41.478Z,100138.59
2022-12-19T18:22:13.415Z,100141.78
2022-12-19T18:24:40.465Z,100132.94
2022-12-19T18:27:08.010Z,100134.88
2022-12-19T18:29:36.171Z,100135.72
2022-12-19T18:32:03.500Z,100118.63
2022-12-19T18:34:31.374Z,100131.31
2022-12-19T18:36:58.346Z,100135.47
2022-12-19T18:39:27.511Z,100121.44
2022-12-19T18:41:54.800Z,100120.84
2022-12-19T18:44:24.574Z,100113.25
2022-12-19T18:46:52.384Z,100122.28
2022-12-19T18:49:19.562Z,100122.47
2022-12-19T18:51:50.001Z,100104.00
2022-12-19T18:54:22.117Z,100101.41
2022-12-19T18:56:48.767Z,100098.13
2022-12-19T18:59:15.621Z,100107.28
2022-12-19T19:01:46.166Z,100103.41
2022-12-19T19:04:17.905Z,100110.41
2022-12-19T19:06:51.110Z,100117.84
2022-12-19T19:09:20.355Z,100117.06
2022-12-19T19:11:47.281Z,100104.91
2022-12-19T19:14:14.640Z,100107.03
2022-12-19T19:16:41.566Z,100114.28
2022-12-19T19:19:15.023Z,100102.63
2022-12-19T19:21:42.926Z,100101.16
2022-12-19T19:24:16.443Z,100098.63
2022-12-19T19:26:43.386Z,100106.97
2022-12-19T19:29:10.982Z,100100.16
2022-12-19T19:31:40.853Z,100116.25
2022-12-19T19:34:29.398Z,100134.97
2022-12-19T19:36:59.272Z,100131.78
2022-12-19T19:39:27.858Z,100127.72
2022-12-19T19:41:56.413Z,100126.00
2022-12-19T19:44:23.149Z,100139.53
2022-12-19T19:46:50.014Z,100085.78
2022-12-19T19:49:16.948Z,100081.63
2022-12-19T19:51:43.744Z,100088.94
2022-12-19T19:54:10.429Z,100078.59
2022-12-19T19:56:37.233Z,100083.16
2022-12-19T19:59:04.553Z,100077.97
2022-12-19T20:01:31.897Z,100086.53
2022-12-19T20:03:58.767Z,100075.47
2022-12-19T20:06:25.648Z,100084.19
2022-12-19T20:08:52.416Z,100079.28
2022-12-19T20:11:20.500Z,100079.78
2022-12-19T20:13:47.378Z,100072.44
2022-12-19T20:16:16.998Z,100081.00
2022-12-19T20:18:49.188Z,100082.44
2022-12-19T20:21:16.721Z,100075.81
2022-12-19T20:23:44.217Z,100062.00
2022-12-19T20:26:14.036Z,100072.66
2022-12-19T20:28:47.702Z,100073.38
2022-12-19T20:31:16.119Z,100088.53
2022-12-19T20:33:43.013Z,100085.22
2022-12-19T20:36:11.834Z,100083.16
2022-12-19T20:38:39.515Z,100074.75
2022-12-19T20:41:06.832Z,100077.75
2022-12-19T20:43:34.280Z,100086.75
2022-12-19T20:46:09.843Z,100086.19
2022-12-19T20:48:38.456Z,100088.25
2022-12-19T20:51:06.709Z,100091.28
2022-12-19T20:53:35.087Z,100110.38
2022-12-19T20:56:03.526Z,100109.16
2022-12-19T20:58:32.248Z,100110.50
2022-12-19T21:01:13.356Z,100119.59
2022-12-19T21:03:40.878Z,100113.63
2022-12-19T21:06:09.655Z,100113.06
2022-12-19T21:08:37.146Z,100112.53
2022-12-19T21:11:05.971Z,100130.72
2022-12-19T21:13:33.099Z,100132.25
2022-12-19T21:16:04.467Z,100136.97
2022-12-19T21:18:31.201Z,100133.31
2022-12-19T21:20:58.976Z,100126.53
2022-12-19T21:23:26.048Z,100125.63
2022-12-19T21:25:56.287Z,100127.47
2022-12-19T21:28:22.941Z,100123.31
2022-12-19T21:30:59.628Z,100117.06
2022-12-19T21:33:27.541Z,100118.41
2022-12-19T21:35:54.569Z,100119.78
2022-12-19T21:38:21.613Z,100115.03
2022-12-19T21:40:48.491Z,100109.97
2022-12-19T21:43:15.125Z,100109.56
2022-12-19T21:45:41.863Z,100101.69
2022-12-19T21:48:08.632Z,100102.66
2022-12-19T21:50:35.460Z,100077.25
2022-12-19T21:53:02.069Z,100082.00
2022-12-19T21:55:28.759Z,100074.38
2022-12-19T21:57:55.442Z,100086.47
2022-12-19T22:00:22.429Z,100078.19
2022-12-19T22:03:12.109Z,100065.69
2022-12-19T22:05:36.113Z,100067.50
2022-12-19T22:08:02.850Z,100073.78
2022-12-19T22:10:29.545Z,100069.56
2022-12-19T22:12:56.198Z,100064.66
2022-12-19T22:15:22.869Z,100067.47
2022-12-19T22:17:49.788Z,100050.34
2022-12-19T22:20:16.545Z,100053.03
2022-12-19T22:22:43.282Z,100036.38
2022-12-19T22:25:10.176Z,100046.34
2022-12-19T22:27:36.839Z,100037.66
2022-12-19T22:30:10.940Z,100029.91
2022-12-19T22:32:38.075Z,100022.03
2022-12-19T22:35:05.279Z,100031.72
2022-12-19T22:37:32.028Z,100020.53
2022-12-19T22:40:00.475Z,100013.53
2022-12-19T22:42:28.395Z,100002.22
2022-12-19T22:44:55.083Z,100006.06
2022-12-19T22:47:21.851Z,100011.81
2022-12-19T22:49:52.097Z,100004.22
2022-12-19T22:52:19.236Z,99991.03
2022-12-19T22:54:45.947Z,100003.81
2022-12-19T22:57:12.866Z,100002.84
2022-12-19T22:59:40.485Z,99980.31
2022-12-19T23:02:07.381Z,99992.81
2022-12-19T23:04:36.012Z,99984.50
2022-12-19T23:07:02.974Z,99992.81
2022-12-19T23:09:30.085Z,99982.63
2022-12-19T23:11:56.889Z,99972.81
2022-12-19T23:14:23.802Z,99975.16
2022-12-19T23:16:50.526Z,99985.50
2022-12-19T23:19:17.929Z,99975.09
2022-12-19T23:21:45.114Z,99968.53
2022-12-19T23:24:12.509Z,99966.16
2022-12-19T23:26:39.805Z,99963.25
2022-12-19T23:29:10.394Z,99963.75
2022-12-19T23:31:41.121Z,99971.06
2022-12-19T23:34:08.027Z,99976.38
2022-12-19T23:39:21.644Z,99975.97
2022-12-19T23:41:48.436Z,99967.75
2022-12-19T23:44:15.437Z,99972.09
2022-12-19T23:46:42.155Z,99958.63
2022-12-19T23:49:08.836Z,99959.88
2022-12-19T23:51:35.554Z,99959.03
2022-12-19T23:54:02.267Z,99959.59
2022-12-19T23:56:31.556Z,99958.56
2022-12-19T23:58:59.028Z,99948.47
